Time;durP1;ratioP1;P1;durP2;ratioP2;P2;SDS_P1;SDS_P2;PMS_P1;PMS_P2;Temp;Humidity;BMP_temperature;BMP_pressure;BME280_temperature;BME280_humidity;BME280_pressure;Samples;Min_cycle;Max_cycle;Signal;HPM_P1;HPM_P2
2022/04/17 00:01:31;;;;;;;6.60;3.50;;;;;;;;;;5049448;28;20059;-69
2022/04/17 00:03:56;;;;;;;5.70;3.05;;;;;;;;;;5049013;28;20045;-68
2022/04/17 00:06:21;;;;;;;7.28;3.42;;;;;;;;;;5049544;28;20037;-68
2022/04/17 00:08:47;;;;;;;6.05;3.63;;;;;;;;;;5048779;28;20032;-68
2022/04/17 00:11:12;;;;;;;6.30;3.10;;;;;;;;;;5049791;28;20092;-69
2022/04/17 00:13:38;;;;;;;5.72;3.20;;;;;;;;;;5039111;28;20144;-69
2022/04/17 00:16:03;;;;;;;5.82;3.40;;;;;;;;;;5049433;28;20037;-69
2022/04/17 00:18:29;;;;;;;6.72;3.25;;;;;;;;;;5045825;28;20079;-69
2022/04/17 00:20:54;;;;;;;6.32;3.47;;;;;;;;;;5041346;28;20042;-69
2022/04/17 00:23:19;;;;;;;6.88;3.20;;;;;;;;;;5036362;28;20145;-68
2022/04/17 00:25:45;;;;;;;5.97;3.28;;;;;;;;;;5029435;28;20419;-69
2022/04/17 00:28:10;;;;;;;6.97;3.20;;;;;;;;;;5034938;28;20040;-69
2022/04/17 00:30:36;;;;;;;9.27;3.35;;;;;;;;;;5048625;28;20119;-69
2022/04/17 00:33:02;;;;;;;5.13;3.15;;;;;;;;;;5053187;28;20494;-69
2022/04/17 00:35:27;;;;;;;5.13;3.38;;;;;;;;;;5044896;28;20040;-68
2022/04/17 00:37:53;;;;;;;8.40;3.00;;;;;;;;;;5052058;28;20093;-69
2022/04/17 00:40:18;;;;;;;9.15;3.35;;;;;;;;;;5028953;28;20814;-69
2022/04/17 00:42:44;;;;;;;5.25;3.20;;;;;;;;;;5047327;28;20468;-69
2022/04/17 00:45:10;;;;;;;6.72;3.50;;;;;;;;;;5048352;28;20049;-69
2022/04/17 00:47:35;;;;;;;5.72;3.30;;;;;;;;;;5056186;28;20175;-69
2022/04/17 00:50:02;;;;;;;5.75;3.20;;;;;;;;;;5036482;28;20040;-68
2022/04/17 00:52:28;;;;;;;5.53;3.05;;;;;;;;;;5037513;28;20053;-69
2022/04/17 00:54:54;;;;;;;4.80;3.13;;;;;;;;;;5042810;28;20049;-69
2022/04/17 00:57:20;;;;;;;4.32;2.70;;;;;;;;;;5043452;28;20048;-69
2022/04/17 00:59:49;;;;;;;5.05;3.17;;;;;;;;;;5048176;28;20028;-69
2022/04/17 01:02:15;;;;;;;4.45;3.00;;;;;;;;;;5048495;28;20469;-69
2022/04/17 01:04:41;;;;;;;5.45;2.95;;;;;;;;;;5046327;28;20136;-69
2022/04/17 01:07:08;;;;;;;3.90;2.83;;;;;;;;;;5030927;28;20044;-69
2022/04/17 01:09:35;;;;;;;4.07;2.70;;;;;;;;;;5036009;28;20037;-69
2022/04/17 01:12:00;;;;;;;5.63;3.10;;;;;;;;;;5028507;28;20039;-69
2022/04/17 01:14:26;;;;;;;5.88;3.17;;;;;;;;;;5038474;28;20024;-68
2022/04/17 01:16:52;;;;;;;5.75;2.78;;;;;;;;;;5048409;28;20056;-69
2022/04/17 01:19:18;;;;;;;5.88;3.10;;;;;;;;;;5040091;28;20072;-69
2022/04/17 01:21:46;;;;;;;5.45;3.33;;;;;;;;;;5053903;28;20032;-69
2022/04/17 01:27:00;;;;;;;5.72;2.97;;;;;;;;;;5047872;28;20513;-69
2022/04/17 01:29:34;;;;;;;4.97;3.40;;;;;;;;;;5046111;28;20509;-69
2022/04/17 01:32:05;;;;;;;6.03;3.30;;;;;;;;;;5047651;28;20124;-68
2022/04/17 01:34:31;;;;;;;6.82;3.40;;;;;;;;;;5035915;28;20063;-69
2022/04/17 01:36:57;;;;;;;4.47;3.22;;;;;;;;;;5047715;28;20519;-68
2022/04/17 01:39:22;;;;;;;5.70;3.20;;;;;;;;;;5041361;28;20045;-69
2022/04/17 01:41:53;;;;;;;6.85;3.30;;;;;;;;;;5027696;28;20041;-68
2022/04/17 01:44:19;;;;;;;5.82;3.42;;;;;;;;;;5031410;28;20017;-69
2022/04/17 01:46:45;;;;;;;5.03;3.28;;;;;;;;;;5045830;28;20049;-69
2022/04/17 01:49:13;;;;;;;8.05;3.50;;;;;;;;;;5048455;28;20041;-69
2022/04/17 01:51:39;;;;;;;6.43;3.80;;;;;;;;;;5043026;28;20044;-69
2022/04/17 01:54:09;;;;;;;5.10;3.20;;;;;;;;;;5046713;28;20066;-69
2022/04/17 01:56:36;;;;;;;5.40;3.40;;;;;;;;;;5044584;28;20655;-69
2022/04/17 01:59:03;;;;;;;9.38;3.72;;;;;;;;;;5045725;28;20029;-69
2022/04/17 02:01:28;;;;;;;6.25;3.60;;;;;;;;;;5047269;28;20049;-69
2022/04/17 02:03:53;;;;;;;6.25;3.40;;;;;;;;;;5046999;28;20055;-69
2022/04/17 02:06:19;;;;;;;7.53;3.65;;;;;;;;;;5046877;28;20453;-69
2022/04/17 02:08:44;;;;;;;6.38;3.50;;;;;;;;;;5043902;28;20043;-69
2022/04/17 02:11:10;;;;;;;6.25;3.63;;;;;;;;;;5047073;28;20033;-69
2022/04/17 02:13:36;;;;;;;5.82;3.30;;;;;;;;;;5043599;28;20036;-69
2022/04/17 02:16:02;;;;;;;6.63;3.60;;;;;;;;;;5038807;28;20037;-69
2022/04/17 02:18:27;;;;;;;7.40;3.42;;;;;;;;;;5030902;28;20034;-69
2022/04/17 02:20:53;;;;;;;5.53;3.30;;;;;;;;;;5032806;28;20117;-69
2022/04/17 02:23:19;;;;;;;7.30;3.58;;;;;;;;;;5050427;28;20685;-69
2022/04/17 02:25:44;;;;;;;4.88;3.38;;;;;;;;;;5036344;28;20614;-69
2022/04/17 02:28:10;;;;;;;5.75;3.30;;;;;;;;;;5029730;28;20080;-69
2022/04/17 02:30:36;;;;;;;5.18;3.47;;;;;;;;;;5045273;28;20114;-69
2022/04/17 02:33:02;;;;;;;5.40;3.17;;;;;;;;;;5046001;28;20037;-69
2022/04/17 02:35:28;;;;;;;5.47;3.28;;;;;;;;;;5047300;28;20490;-69
2022/04/17 02:37:53;;;;;;;7.20;3.65;;;;;;;;;;5041981;28;20037;-69
2022/04/17 02:40:18;;;;;;;8.48;3.63;;;;;;;;;;5047523;28;20825;-69
2022/04/17 02:42:44;;;;;;;7.68;4.13;;;;;;;;;;5045975;28;20049;-69
2022/04/17 02:45:09;;;;;;;8.75;3.88;;;;;;;;;;5047596;28;20037;-69
2022/04/17 02:47:44;;;;;;;5.47;3.50;;;;;;;;;;5052536;28;20036;-69
2022/04/17 02:50:10;;;;;;;8.98;3.65;;;;;;;;;;5042027;28;20032;-69
2022/04/17 02:52:36;;;;;;;7.05;3.47;;;;;;;;;;5038211;28;20033;-68
2022/04/17 02:55:02;;;;;;;6.75;3.58;;;;;;;;;;5047298;28;20526;-69
2022/04/17 02:57:28;;;;;;;6.03;3.60;;;;;;;;;;5041614;28;20075;-69
2022/04/17 02:59:53;;;;;;;7.00;3.47;;;;;;;;;;5045725;28;20060;-69
2022/04/17 03:07:46;;;;;;;7.50;3.58;;;;;;;;;;5046772;28;19923;-69
2022/04/17 03:10:11;;;;;;;8.15;3.70;;;;;;;;;;5046620;28;20036;-69
2022/04/17 03:12:37;;;;;;;7.70;3.10;;;;;;;;;;5040036;28;20033;-69
2022/04/17 03:15:04;;;;;;;7.55;3.53;;;;;;;;;;5042488;28;20037;-69
2022/04/17 03:17:29;;;;;;;8.48;3.70;;;;;;;;;;5036969;28;20025;-69
2022/04/17 03:19:55;;;;;;;7.60;3.40;;;;;;;;;;5057155;28;20062;-69
2022/04/17 03:22:22;;;;;;;6.68;3.40;;;;;;;;;;5038308;28;20610;-69
2022/04/17 03:24:47;;;;;;;7.82;3.40;;;;;;;;;;5027278;28;20130;-69
2022/04/17 03:27:12;;;;;;;11.38;3.20;;;;;;;;;;5043430;28;20562;-69
2022/04/17 03:29:38;;;;;;;4.68;2.92;;;;;;;;;;5046469;28;20791;-68
2022/04/17 03:32:04;;;;;;;5.38;3.30;;;;;;;;;;5042045;28;20040;-68
2022/04/17 03:34:29;;;;;;;7.07;2.58;;;;;;;;;;5052493;28;20562;-69
2022/04/17 03:36:56;;;;;;;8.95;3.38;;;;;;;;;;5045048;28;20037;-69
2022/04/17 03:39:22;;;;;;;5.75;2.83;;;;;;;;;;5043450;28;20560;-69
2022/04/17 03:41:48;;;;;;;5.13;2.80;;;;;;;;;;5043028;28;20040;-69
2022/04/17 03:44:13;;;;;;;5.78;2.63;;;;;;;;;;5052027;28;20032;-69
2022/04/17 03:46:38;;;;;;;6.32;2.95;;;;;;;;;;5046297;28;20071;-69
2022/04/17 03:49:03;;;;;;;5.30;2.75;;;;;;;;;;5043712;28;20430;-69
2022/04/17 03:51:29;;;;;;;4.00;2.47;;;;;;;;;;5046233;28;20095;-69
2022/04/17 03:53:54;;;;;;;5.05;2.75;;;;;;;;;;5041655;28;20056;-69
2022/04/17 03:56:19;;;;;;;7.20;2.80;;;;;;;;;;5045212;28;20037;-69
2022/04/17 03:58:45;;;;;;;6.80;3.30;;;;;;;;;;5040011;28;20175;-69
2022/04/17 04:01:10;;;;;;;4.50;2.85;;;;;;;;;;5046607;28;20044;-69
2022/04/17 04:03:37;;;;;;;5.00;2.80;;;;;;;;;;5039792;28;20045;-69
2022/04/17 04:06:04;;;;;;;5.70;2.75;;;;;;;;;;5046863;28;20108;-69
2022/04/17 04:08:29;;;;;;;4.22;2.70;;;;;;;;;;5046977;28;20413;-69
2022/04/17 04:10:54;;;;;;;6.38;2.60;;;;;;;;;;5048438;28;20045;-69
2022/04/17 04:13:20;;;;;;;4.10;2.72;;;;;;;;;;5046336;28;20090;-69
2022/04/17 04:15:45;;;;;;;6.80;2.97;;;;;;;;;;5049782;28;20041;-69
2022/04/17 04:18:10;;;;;;;5.68;2.58;;;;;;;;;;5048218;28;20120;-68
2022/04/17 04:20:36;;;;;;;6.15;3.33;;;;;;;;;;5058458;28;20043;-69
2022/04/17 04:23:01;;;;;;;6.32;2.58;;;;;;;;;;5053627;28;20029;-68
2022/04/17 04:25:26;;;;;;;4.85;2.67;;;;;;;;;;5050112;28;20037;-69
2022/04/17 04:30:36;;;;;;;5.32;2.90;;;;;;;;;;5029639;28;20091;-69
2022/04/17 04:33:01;;;;;;;4.82;2.70;;;;;;;;;;5042197;28;20032;-69
2022/04/17 04:35:26;;;;;;;4.47;2.42;;;;;;;;;;5050348;28;20036;-69
2022/04/17 04:37:52;;;;;;;3.78;2.35;;;;;;;;;;5057182;28;20028;-69
2022/04/17 04:40:18;;;;;;;6.28;2.90;;;;;;;;;;5041111;28;20041;-69
2022/04/17 04:42:43;;;;;;;4.50;2.60;;;;;;;;;;5033677;28;20037;-68
2022/04/17 04:47:53;;;;;;;4.00;2.35;;;;;;;;;;5059638;28;20030;-69
2022/04/17 04:50:18;;;;;;;6.75;2.67;;;;;;;;;;5051281;28;20036;-69
2022/04/17 04:52:43;;;;;;;5.35;2.90;;;;;;;;;;5044054;28;20514;-69
2022/04/17 04:55:09;;;;;;;4.20;2.33;;;;;;;;;;5049474;28;20253;-69
2022/04/17 04:57:37;;;;;;;6.15;2.50;;;;;;;;;;5049608;28;20541;-69
2022/04/17 05:00:07;;;;;;;4.60;2.63;;;;;;;;;;5046560;28;20036;-69
2022/04/17 05:02:34;;;;;;;4.93;2.40;;;;;;;;;;5046667;28;20048;-69
2022/04/17 05:04:59;;;;;;;6.20;2.78;;;;;;;;;;5049364;28;20064;-68
2022/04/17 05:07:24;;;;;;;5.07;2.58;;;;;;;;;;5036866;28;20049;-69
2022/04/17 05:09:50;;;;;;;3.45;2.10;;;;;;;;;;5038754;28;20118;-69
2022/04/17 05:12:15;;;;;;;4.70;2.58;;;;;;;;;;5049270;28;20106;-69
2022/04/17 05:14:41;;;;;;;4.07;2.35;;;;;;;;;;5049027;28;20025;-69
2022/04/17 05:17:08;;;;;;;4.20;2.85;;;;;;;;;;5038366;28;20376;-69
2022/04/17 05:19:33;;;;;;;5.32;2.38;;;;;;;;;;5044520;28;20037;-69
2022/04/17 05:21:59;;;;;;;6.15;2.90;;;;;;;;;;5056082;28;20046;-69
2022/04/17 05:24:25;;;;;;;5.13;2.80;;;;;;;;;;5057832;28;20055;-69
2022/04/17 05:26:51;;;;;;;5.75;2.53;;;;;;;;;;5048491;28;20033;-69
2022/04/17 05:29:17;;;;;;;5.78;2.42;;;;;;;;;;5048928;28;20078;-69
2022/04/17 05:31:42;;;;;;;5.90;2.40;;;;;;;;;;5046062;28;20033;-69
2022/04/17 05:34:07;;;;;;;8.48;2.50;;;;;;;;;;5043316;28;20045;-69
2022/04/17 05:36:33;;;;;;;5.63;2.75;;;;;;;;;;5036054;28;20046;-69
2022/04/17 05:38:58;;;;;;;6.50;2.50;;;;;;;;;;5030815;28;20049;-69
2022/04/17 05:41:24;;;;;;;5.63;2.30;;;;;;;;;;5039966;28;20522;-69
2022/04/17 05:43:50;;;;;;;7.13;2.70;;;;;;;;;;5047636;28;20040;-69
2022/04/17 05:46:16;;;;;;;5.78;2.83;;;;;;;;;;5047776;28;20510;-69
2022/04/17 05:48:42;;;;;;;4.43;2.30;;;;;;;;;;5065424;28;20098;-69
2022/04/17 05:51:07;;;;;;;4.38;2.58;;;;;;;;;;5042329;28;20037;-69
2022/04/17 05:53:33;;;;;;;5.38;2.58;;;;;;;;;;5042212;28;20147;-69
2022/04/17 05:55:59;;;;;;;5.95;2.97;;;;;;;;;;5059870;28;20052;-69
2022/04/17 05:58:25;;;;;;;4.03;2.45;;;;;;;;;;5055478;28;20623;-69
2022/04/17 06:00:50;;;;;;;4.70;2.70;;;;;;;;;;5052580;28;20107;-69
2022/04/17 06:03:16;;;;;;;6.30;3.13;;;;;;;;;;5047911;28;20522;-69
2022/04/17 06:05:41;;;;;;;7.32;2.70;;;;;;;;;;5048128;28;20025;-69
2022/04/17 06:08:07;;;;;;;4.10;2.72;;;;;;;;;;5042707;28;20074;-69
2022/04/17 06:10:33;;;;;;;6.32;2.83;;;;;;;;;;5053792;28;20130;-69
2022/04/17 06:12:58;;;;;;;6.00;2.63;;;;;;;;;;5061018;28;20044;-69
2022/04/17 06:15:23;;;;;;;5.40;2.60;;;;;;;;;;5051058;28;20114;-69
2022/04/17 06:17:49;;;;;;;6.63;2.67;;;;;;;;;;5048116;28;20444;-69
2022/04/17 06:20:15;;;;;;;5.95;2.67;;;;;;;;;;5033946;28;20021;-69
2022/04/17 06:22:41;;;;;;;5.43;2.75;;;;;;;;;;5037093;28;20043;-69
2022/04/17 06:25:11;;;;;;;5.13;3.10;;;;;;;;;;5032659;28;20046;-69
2022/04/17 06:27:40;;;;;;;4.20;2.55;;;;;;;;;;5050999;28;20033;-69
2022/04/17 06:30:12;;;;;;;4.75;2.90;;;;;;;;;;5050046;28;20028;-69
2022/04/17 06:32:42;;;;;;;4.18;2.65;;;;;;;;;;5049575;28;20674;-69
2022/04/17 06:35:09;;;;;;;3.85;2.53;;;;;;;;;;5042551;28;20043;-69
2022/04/17 06:37:57;;;;;;;5.30;3.33;;;;;;;;;;5046288;28;20466;-69
2022/04/17 06:40:34;;;;;;;6.10;3.20;;;;;;;;;;5045998;28;20052;-69
2022/04/17 06:43:08;;;;;;;6.15;3.35;;;;;;;;;;5046579;28;20052;-69
2022/04/17 06:45:38;;;;;;;5.57;3.13;;;;;;;;;;5043400;28;20040;-69
2022/04/17 06:48:19;;;;;;;7.43;3.58;;;;;;;;;;5046566;28;20033;-69
2022/04/17 06:50:46;;;;;;;5.65;3.33;;;;;;;;;;5043595;28;20052;-69
2022/04/17 06:53:11;;;;;;;10.88;3.70;;;;;;;;;;5046777;28;20017;-69
2022/04/17 06:55:37;;;;;;;8.35;3.85;;;;;;;;;;5045191;28;20037;-69
2022/04/17 06:58:02;;;;;;;6.93;3.97;;;;;;;;;;5046168;28;20116;-69
2022/04/17 07:00:28;;;;;;;6.90;4.00;;;;;;;;;;5037416;28;20041;-69
2022/04/17 07:02:53;;;;;;;9.18;3.15;;;;;;;;;;5032305;28;20640;-69
2022/04/17 07:05:19;;;;;;;7.22;3.20;;;;;;;;;;5025246;28;20025;-69
2022/04/17 07:07:44;;;;;;;5.20;3.17;;;;;;;;;;5031008;28;20112;-69
2022/04/17 07:10:10;;;;;;;6.38;3.30;;;;;;;;;;5037883;28;20043;-69
2022/04/17 07:12:36;;;;;;;6.38;3.25;;;;;;;;;;5040728;28;20037;-69
2022/04/17 07:15:03;;;;;;;5.43;2.92;;;;;;;;;;5041373;28;20040;-69
2022/04/17 07:17:35;;;;;;;5.03;2.88;;;;;;;;;;5046297;28;20039;-69
2022/04/17 07:20:02;;;;;;;6.55;3.17;;;;;;;;;;5046202;28;20037;-68
2022/04/17 07:22:28;;;;;;;5.15;2.88;;;;;;;;;;5048450;28;20040;-69
2022/04/17 07:24:54;;;;;;;7.60;3.50;;;;;;;;;;5043230;28;20029;-69
2022/04/17 07:27:20;;;;;;;5.88;3.35;;;;;;;;;;5045365;28;20470;-69
2022/04/17 07:29:46;;;;;;;6.43;3.45;;;;;;;;;;5042576;28;20067;-69
2022/04/17 07:32:11;;;;;;;6.25;3.30;;;;;;;;;;5043857;28;20029;-69
2022/04/17 07:34:36;;;;;;;4.47;3.00;;;;;;;;;;5043166;28;20037;-67
2022/04/17 07:37:02;;;;;;;6.57;3.50;;;;;;;;;;5039713;28;20064;-68
2022/04/17 07:39:27;;;;;;;4.75;2.83;;;;;;;;;;5044386;28;20045;-68
2022/04/17 07:41:53;;;;;;;5.95;3.45;;;;;;;;;;5046660;28;20111;-68
2022/04/17 07:44:18;;;;;;;7.40;3.13;;;;;;;;;;5041845;28;20117;-68
2022/04/17 07:46:43;;;;;;;6.05;3.00;;;;;;;;;;5058306;28;20532;-69
2022/04/17 07:49:09;;;;;;;8.95;3.17;;;;;;;;;;5052339;28;20194;-68
2022/04/17 07:51:35;;;;;;;5.65;3.00;;;;;;;;;;5033205;28;20034;-68
2022/04/17 07:54:01;;;;;;;5.72;3.05;;;;;;;;;;5041454;28;20376;-68
2022/04/17 07:56:27;;;;;;;5.72;2.95;;;;;;;;;;5032919;28;20059;-68
2022/04/17 07:58:52;;;;;;;4.43;2.55;;;;;;;;;;5043375;28;20040;-69
2022/04/17 08:01:17;;;;;;;4.97;3.08;;;;;;;;;;5039849;28;20044;-69
2022/04/17 08:03:46;;;;;;;4.30;2.67;;;;;;;;;;5043810;28;20167;-69
2022/04/17 08:06:16;;;;;;;5.95;3.15;;;;;;;;;;5045529;28;20033;-68
2022/04/17 08:08:42;;;;;;;4.78;2.88;;;;;;;;;;5042522;28;20568;-68
2022/04/17 08:11:08;;;;;;;4.18;2.65;;;;;;;;;;5045047;28;20031;-68
2022/04/17 08:13:35;;;;;;;5.65;2.83;;;;;;;;;;5041813;28;20033;-69
2022/04/17 08:16:02;;;;;;;5.68;2.67;;;;;;;;;;5039791;28;20072;-69
2022/04/17 08:18:27;;;;;;;7.93;3.33;;;;;;;;;;5051787;28;20033;-68
2022/04/17 08:20:52;;;;;;;5.75;3.22;;;;;;;;;;5045516;28;20111;-69
2022/04/17 08:23:18;;;;;;;4.60;2.88;;;;;;;;;;5050710;28;20033;-69
2022/04/17 08:25:43;;;;;;;4.53;2.85;;;;;;;;;;5045535;28;20029;-69
2022/04/17 08:28:09;;;;;;;4.78;2.97;;;;;;;;;;5047463;28;20041;-68
2022/04/17 08:30:35;;;;;;;7.35;3.13;;;;;;;;;;5045147;28;20881;-68
2022/04/17 08:33:04;;;;;;;5.05;3.00;;;;;;;;;;5046714;28;20032;-69
2022/04/17 08:35:29;;;;;;;3.55;2.50;;;;;;;;;;5042715;28;20033;-69
2022/04/17 08:37:57;;;;;;;8.15;2.90;;;;;;;;;;5047956;28;20040;-69
2022/04/17 08:40:24;;;;;;;5.57;2.70;;;;;;;;;;5043047;28;20037;-68
2022/04/17 08:42:50;;;;;;;5.15;2.90;;;;;;;;;;5055967;28;20053;-68
2022/04/17 08:45:15;;;;;;;4.95;2.60;;;;;;;;;;5041610;28;20041;-69
2022/04/17 08:47:42;;;;;;;4.60;2.95;;;;;;;;;;5044862;28;20029;-69
2022/04/17 08:50:09;;;;;;;7.18;3.15;;;;;;;;;;5035812;28;20029;-69
2022/04/17 08:52:35;;;;;;;6.35;2.92;;;;;;;;;;5043839;28;20768;-69
2022/04/17 08:55:01;;;;;;;7.10;3.33;;;;;;;;;;5044648;28;20037;-69
2022/04/17 08:57:27;;;;;;;8.60;3.45;;;;;;;;;;5046139;28;20045;-69
2022/04/17 08:59:52;;;;;;;5.30;3.03;;;;;;;;;;5043372;28;20033;-69
2022/04/17 09:02:18;;;;;;;3.58;2.67;;;;;;;;;;5045133;28;20103;-69
2022/04/17 09:04:44;;;;;;;5.97;3.10;;;;;;;;;;5045026;28;20311;-69
2022/04/17 09:07:11;;;;;;;4.70;3.00;;;;;;;;;;5043323;28;20090;-69
2022/04/17 09:09:38;;;;;;;5.32;3.60;;;;;;;;;;5047885;28;20032;-69
2022/04/17 09:12:04;;;;;;;6.28;3.17;;;;;;;;;;5047958;28;20033;-68
2022/04/17 09:14:29;;;;;;;5.40;3.05;;;;;;;;;;5047426;28;20028;-69
2022/04/17 09:16:55;;;;;;;4.90;2.95;;;;;;;;;;5045614;28;20036;-69
2022/04/17 09:19:20;;;;;;;6.53;3.03;;;;;;;;;;5045427;28;20045;-69
2022/04/17 09:21:54;;;;;;;5.63;3.40;;;;;;;;;;5046133;28;20041;-69
2022/04/17 09:24:26;;;;;;;6.28;2.95;;;;;;;;;;5035776;28;20534;-69
2022/04/17 09:26:58;;;;;;;7.80;3.20;;;;;;;;;;5044543;28;20037;-69
2022/04/17 09:29:26;;;;;;;9.48;3.38;;;;;;;;;;5047710;28;20053;-69
2022/04/17 09:32:03;;;;;;;5.55;3.47;;;;;;;;;;5046266;28;20043;-69
2022/04/17 09:34:41;;;;;;;6.15;3.38;;;;;;;;;;5040257;28;20037;-69
2022/04/17 09:37:15;;;;;;;5.38;3.65;;;;;;;;;;5043452;28;20683;-69
2022/04/17 09:39:40;;;;;;;;;;;;;;;;;;5043160;28;20041;-69
2022/04/17 09:42:07;;;;;;;6.85;2.80;;;;;;;;;;5045940;28;19924;-68
2022/04/17 09:44:38;;;;;;;4.90;3.08;;;;;;;;;;5044864;28;20021;-69
2022/04/17 09:47:07;;;;;;;6.20;3.42;;;;;;;;;;5047537;28;20044;-69
2022/04/17 09:49:49;;;;;;;6.68;3.28;;;;;;;;;;5032044;28;20044;-69
2022/04/17 09:52:14;;;;;;;8.77;3.85;;;;;;;;;;5037721;28;20041;-69
2022/04/17 09:54:42;;;;;;;9.55;3.40;;;;;;;;;;5045474;28;20457;-70
2022/04/17 09:57:08;;;;;;;6.03;3.03;;;;;;;;;;5042719;28;20713;-69
2022/04/17 09:59:33;;;;;;;12.15;3.78;;;;;;;;;;5046210;28;20029;-69
2022/04/17 10:01:59;;;;;;;4.70;2.92;;;;;;;;;;5043921;28;20056;-69
2022/04/17 10:04:25;;;;;;;7.88;3.83;;;;;;;;;;5040659;28;20033;-69
2022/04/17 10:06:56;;;;;;;5.78;3.17;;;;;;;;;;5046005;28;20040;-69
2022/04/17 10:09:21;;;;;;;5.22;3.22;;;;;;;;;;5044871;28;20036;-69
2022/04/17 10:11:49;;;;;;;10.88;3.45;;;;;;;;;;5044002;28;20044;-68
2022/04/17 10:14:15;;;;;;;5.82;2.88;;;;;;;;;;5043365;28;20029;-68
2022/04/17 10:16:42;;;;;;;6.10;3.20;;;;;;;;;;5043785;28;20044;-69
2022/04/17 10:19:15;;;;;;;6.65;3.30;;;;;;;;;;5048215;28;20127;-69
2022/04/17 10:21:41;;;;;;;;;;;;;;;;;;5043495;28;20155;-69
2022/04/17 10:24:11;;;;;;;6.38;2.40;;;;;;;;;;5045261;28;20465;-69
2022/04/17 10:26:48;;;;;;;4.65;3.13;;;;;;;;;;5045393;28;20486;-69
2022/04/17 10:29:19;;;;;;;4.55;2.95;;;;;;;;;;5039424;28;20017;-69
2022/04/17 10:31:58;;;;;;;6.13;2.78;;;;;;;;;;5044706;28;20510;-69
2022/04/17 10:34:42;;;;;;;5.30;2.90;;;;;;;;;;5050095;28;20044;-69
2022/04/17 10:37:29;;;;;;;5.53;3.20;;;;;;;;;;5044957;28;20534;-69
2022/04/17 10:39:57;;;;;;;7.25;3.47;;;;;;;;;;5042054;28;20064;-69
2022/04/17 10:42:33;;;;;;;5.72;3.13;;;;;;;;;;5038459;28;20072;-69
2022/04/17 10:45:07;;;;;;;6.05;3.50;;;;;;;;;;5039934;28;20071;-69
2022/04/17 10:47:33;;;;;;;5.22;3.08;;;;;;;;;;5037721;28;20029;-69
2022/04/17 10:50:00;;;;;;;5.05;3.17;;;;;;;;;;5035027;28;20041;-69
2022/04/17 10:52:29;;;;;;;5.38;3.30;;;;;;;;;;5029760;28;20048;-69
2022/04/17 10:55:06;;;;;;;7.22;3.53;;;;;;;;;;5039256;28;20131;-69
2022/04/17 10:57:42;;;;;;;5.95;3.45;;;;;;;;;;5032630;28;20039;-69
2022/04/17 11:00:36;;;;;;;6.65;3.55;;;;;;;;;;5036200;28;20044;-69
2022/04/17 11:03:08;;;;;;;;;;;;;;;;;;5041377;28;20421;-69
2022/04/17 11:08:26;;;;;;;5.78;3.33;;;;;;;;;;5044827;28;20079;-69
2022/04/17 11:10:54;;;;;;;6.72;3.90;;;;;;;;;;5038602;28;20040;-69
2022/04/17 11:13:21;;;;;;;5.40;3.40;;;;;;;;;;5041767;28;20649;-69
2022/04/17 11:15:55;;;;;;;6.68;3.58;;;;;;;;;;5044512;28;20065;-69
2022/04/17 11:18:24;;;;;;;5.18;3.15;;;;;;;;;;5034217;28;21292;-70
2022/04/17 11:20:53;;;;;;;5.30;3.55;;;;;;;;;;5028595;28;20029;-70
2022/04/17 11:23:47;;;;;;;5.57;3.40;;;;;;;;;;5037551;28;20025;-70
2022/04/17 11:26:12;;;;;;;5.35;3.38;;;;;;;;;;5048553;28;20071;-70
2022/04/17 11:28:38;;;;;;;6.55;3.17;;;;;;;;;;5038512;28;20433;-69
2022/04/17 11:31:03;;;;;;;6.35;3.72;;;;;;;;;;5042246;28;20498;-70
2022/04/17 11:33:30;;;;;;;5.00;3.40;;;;;;;;;;5038537;28;20767;-69
2022/04/17 11:35:56;;;;;;;4.78;3.10;;;;;;;;;;5043433;28;20052;-69
2022/04/17 11:38:22;;;;;;;6.40;3.25;;;;;;;;;;5037960;28;20025;-69
2022/04/17 11:40:48;;;;;;;4.45;3.05;;;;;;;;;;5041666;28;20071;-70
2022/04/17 11:43:16;;;;;;;5.72;2.85;;;;;;;;;;5041489;28;20045;-69
2022/04/17 11:45:42;;;;;;;4.88;3.20;;;;;;;;;;5040324;28;20039;-70
2022/04/17 11:48:14;;;;;;;4.35;2.97;;;;;;;;;;5035514;28;20135;-70
2022/04/17 11:50:41;;;;;;;5.45;3.17;;;;;;;;;;5034009;28;20029;-70
2022/04/17 11:53:11;;;;;;;6.22;3.40;;;;;;;;;;5042517;28;20043;-69
2022/04/17 11:55:38;;;;;;;5.20;3.42;;;;;;;;;;5033373;28;20064;-70
2022/04/17 11:58:08;;;;;;;5.55;3.10;;;;;;;;;;5044261;28;20030;-70
2022/04/17 12:00:33;;;;;;;7.35;3.13;;;;;;;;;;5048552;28;20037;-70
2022/04/17 12:03:00;;;;;;;4.43;3.30;;;;;;;;;;5049654;28;20041;-69
2022/04/17 12:05:26;;;;;;;5.78;3.13;;;;;;;;;;5047126;28;20036;-70
2022/04/17 12:07:57;;;;;;;4.60;3.17;;;;;;;;;;5034435;28;20051;-70
2022/04/17 12:10:23;;;;;;;4.65;3.35;;;;;;;;;;5032468;28;20945;-70
2022/04/17 12:12:49;;;;;;;5.43;2.70;;;;;;;;;;5042183;28;20041;-70
2022/04/17 12:15:18;;;;;;;4.22;3.25;;;;;;;;;;5047680;28;20048;-69
2022/04/17 12:17:44;;;;;;;4.57;3.33;;;;;;;;;;5046148;28;20041;-70
2022/04/17 12:20:13;;;;;;;5.65;3.15;;;;;;;;;;5047839;28;20466;-70
2022/04/17 12:22:39;;;;;;;5.22;3.17;;;;;;;;;;5042185;28;20772;-70
2022/04/17 12:25:15;;;;;;;5.68;3.35;;;;;;;;;;5039778;28;20041;-70
2022/04/17 12:27:40;;;;;;;4.03;2.95;;;;;;;;;;5037868;28;20598;-69
2022/04/17 12:30:06;;;;;;;4.53;2.92;;;;;;;;;;5040781;28;20522;-73
2022/04/17 12:32:32;;;;;;;4.70;2.90;;;;;;;;;;5042701;28;20037;-72
2022/04/17 12:34:59;;;;;;;5.10;2.90;;;;;;;;;;5046564;28;20031;-72
2022/04/17 12:37:32;;;;;;;5.32;3.42;;;;;;;;;;5041801;28;20411;-71
2022/04/17 12:40:07;;;;;;;4.13;2.88;;;;;;;;;;5044217;28;20037;-72
2022/04/17 12:42:32;;;;;;;3.78;3.00;;;;;;;;;;5043604;28;20049;-72
2022/04/17 12:44:57;;;;;;;3.58;2.63;;;;;;;;;;5037567;28;20045;-72
2022/04/17 12:47:23;;;;;;;3.17;2.60;;;;;;;;;;5035923;28;20033;-72
2022/04/17 12:49:48;;;;;;;3.15;2.60;;;;;;;;;;5045806;28;20052;-72
2022/04/17 12:52:22;;;;;;;4.57;2.65;;;;;;;;;;5039871;28;20048;-72
2022/04/17 12:54:48;;;;;;;3.15;2.45;;;;;;;;;;5045712;28;20273;-72
2022/04/17 12:57:19;;;;;;;3.63;2.55;;;;;;;;;;5052177;28;20423;-72
2022/04/17 12:59:49;;;;;;;3.80;2.65;;;;;;;;;;5038671;28;20057;-72
2022/04/17 13:02:23;;;;;;;5.25;2.47;;;;;;;;;;5045595;28;20036;-72
2022/04/17 13:04:53;;;;;;;3.40;2.50;;;;;;;;;;5046451;28;20048;-73
2022/04/17 13:07:18;;;;;;;4.18;2.45;;;;;;;;;;5046077;28;20052;-72
2022/04/17 13:09:51;;;;;;;4.63;2.58;;;;;;;;;;5046410;28;20418;-73
2022/04/17 13:12:30;;;;;;;4.57;2.58;;;;;;;;;;5044653;28;20040;-73
2022/04/17 13:14:56;;;;;;;3.05;2.60;;;;;;;;;;5051910;28;20047;-73
2022/04/17 13:17:22;;;;;;;2.92;2.10;;;;;;;;;;5039824;28;20048;-73
2022/04/17 13:19:48;;;;;;;3.35;2.30;;;;;;;;;;5042989;28;20046;-74
2022/04/17 13:22:13;;;;;;;3.67;2.55;;;;;;;;;;5042398;28;20514;-72
2022/04/17 13:24:43;;;;;;;5.22;2.40;;;;;;;;;;5039997;28;20755;-74
2022/04/17 13:27:08;;;;;;;3.00;2.33;;;;;;;;;;5035992;28;20045;-73
2022/04/17 13:29:34;;;;;;;2.90;2.38;;;;;;;;;;5042314;28;20399;-72
2022/04/17 13:31:59;;;;;;;4.32;2.20;;;;;;;;;;5039331;28;20617;-73
2022/04/17 13:34:25;;;;;;;3.10;2.13;;;;;;;;;;5038383;28;20116;-73
2022/04/17 13:38:10;;;;;;;3.20;2.20;;;;;;;;;;5038227;28;20561;-73
2022/04/17 13:39:35;;;;;;;4.05;2.65;;;;;;;;;;5047023;28;20040;-73
2022/04/17 13:42:00;;;;;;;5.47;2.42;;;;;;;;;;5053853;28;20047;-73
2022/04/17 13:44:26;;;;;;;2.78;2.13;;;;;;;;;;5039027;28;20648;-73
2022/04/17 13:46:51;;;;;;;3.67;2.40;;;;;;;;;;5035737;28;20033;-73
2022/04/17 13:49:17;;;;;;;3.53;2.30;;;;;;;;;;5030579;28;20041;-73
2022/04/17 13:51:42;;;;;;;3.40;2.20;;;;;;;;;;5040030;28;20043;-73
2022/04/17 13:54:10;;;;;;;4.00;2.58;;;;;;;;;;5032551;28;20045;-74
2022/04/17 13:56:35;;;;;;;3.80;2.42;;;;;;;;;;5036266;28;20036;-73
2022/04/17 13:59:05;;;;;;;3.38;2.35;;;;;;;;;;5035455;28;20026;-74
2022/04/17 14:01:31;;;;;;;2.55;1.92;;;;;;;;;;5035665;28;20044;-74
2022/04/17 14:03:58;;;;;;;3.78;2.20;;;;;;;;;;5039000;28;20044;-74
2022/04/17 14:06:24;;;;;;;2.78;2.03;;;;;;;;;;5042111;28;20519;-74
2022/04/17 14:08:50;;;;;;;3.15;2.20;;;;;;;;;;5042154;28;20646;-74
2022/04/17 14:11:16;;;;;;;4.35;2.25;;;;;;;;;;5041127;28;20036;-74
2022/04/17 14:13:42;;;;;;;2.55;2.10;;;;;;;;;;5041588;28;20082;-74
2022/04/17 14:16:08;;;;;;;3.78;2.30;;;;;;;;;;5042011;28;20045;-74
2022/04/17 14:18:33;;;;;;;3.10;2.00;;;;;;;;;;5039765;28;20040;-74
2022/04/17 14:20:59;;;;;;;3.53;2.10;;;;;;;;;;5035479;28;20040;-74
2022/04/17 14:23:24;;;;;;;2.78;2.15;;;;;;;;;;5041325;28;20029;-73
2022/04/17 14:25:50;;;;;;;2.92;2.00;;;;;;;;;;5043538;28;20059;-74
2022/04/17 14:28:15;;;;;;;2.30;1.85;;;;;;;;;;5039564;28;20052;-74
2022/04/17 14:30:41;;;;;;;2.40;2.00;;;;;;;;;;5038307;28;20049;-73
2022/04/17 14:33:06;;;;;;;2.80;2.20;;;;;;;;;;5037885;28;20040;-74
2022/04/17 14:35:31;;;;;;;2.88;2.00;;;;;;;;;;5040658;28;20032;-74
2022/04/17 14:37:56;;;;;;;3.13;2.13;;;;;;;;;;5033983;28;20042;-74
2022/04/17 14:40:22;;;;;;;3.25;2.03;;;;;;;;;;5039429;28;20041;-74
2022/04/17 14:42:47;;;;;;;2.63;2.08;;;;;;;;;;5039799;28;20527;-74
2022/04/17 14:45:22;;;;;;;2.67;2.00;;;;;;;;;;5041452;28;20037;-74
2022/04/17 14:47:48;;;;;;;2.53;1.80;;;;;;;;;;5042314;28;20033;-73
2022/04/17 14:50:13;;;;;;;2.28;1.60;;;;;;;;;;5043276;28;20033;-73
2022/04/17 14:52:38;;;;;;;3.10;1.83;;;;;;;;;;5036849;28;20051;-72
2022/04/17 14:55:04;;;;;;;2.67;1.63;;;;;;;;;;5041381;28;20115;-73
2022/04/17 14:57:29;;;;;;;2.42;1.80;;;;;;;;;;5037462;28;20048;-73
2022/04/17 14:59:55;;;;;;;2.55;1.70;;;;;;;;;;5038304;28;20571;-73